Nisshunmaru — JD2245 — position and weather

sailwx.info

Track history (hours):
 
Tides and Currents Weather Stations Pressure Air Temp Water Temp Dewpoint Dewpoint Depression Visibility Wind Speed Wind Dir Waves Ship Positions

Nisshunmaru

Last reported at 2017-Oct-16 16:49 UTC. Time now 2017-Oct-18 11:25 UTC.
Position N 34°54' E 139°25'.

Length 105 m; draft 6 m.

Type: Ship (hazmat cat B). MMSI: 431501863.

Date/timePositionNaut miles runAvg speedWind from/ knotsBaromVisibWave heightAir tempDewpointWater temp
2017-Oct-16 16:49N 34°54' E 139°25'412.9
2017-Oct-16 16:29N 34°57' E 139°29'613.3
2017-Oct-16 16:00N 35°01' E 139°35'714.5
2017-Oct-16 15:30N 35°05' E 139°42'815.2
2017-Oct-16 15:00N 35°12' E 139°46'611.3
2017-Oct-16 14:30N 35°18' E 139°44'1312.5
2017-Oct-16 13:30N 35°30' E 139°48'2 3.7
2017-Oct-16 13:00N 35°31' E 139°46'0 0.0
2017-Oct-16 07:09N 35°31' E 139°46'0 2.7
2017-Oct-16 07:01N 35°31' E 139°46'4 8.3
2017-Oct-16 06:31N 35°28' E 139°42'4 7.3
2017-Oct-16 06:00N 35°25' E 139°45'1 1.6
2017-Oct-16 05:29N 35°24' E 139°45'0 0.0
2017-Oct-16 04:56N 35°24' E 139°45'0 0.0
2017-Oct-16 04:26N 35°24' E 139°45'0 0.0
2017-Oct-16 03:56N 35°24' E 139°45'0 0.0
2017-Oct-16 03:29N 35°24' E 139°45'0 0.0
2017-Oct-16 02:59N 35°24' E 139°45'0 0.0
2017-Oct-16 02:29N 35°24' E 139°45'0 0.0
2017-Oct-16 01:59N 35°24' E 139°45'0 0.0
2017-Oct-16 01:29N 35°24' E 139°45'1 2.0
2017-Oct-16 01:01N 35°25' E 139°45'612.6
2017-Oct-16 00:30N 35°29' E 139°51'814.8
2017-Oct-15 23:59N 35°33' E 139°59'0 0.0
2017-Oct-14 13:29N 35°33' E 139°58'714.0
2017-Oct-14 13:00N 35°29' E 139°52'713.7
2017-Oct-14 12:31N 35°24' E 139°46'612.4
2017-Oct-14 12:00N 35°18' E 139°45'612.5
2017-Oct-14 11:30N 35°12' E 139°47'713.1
2017-Oct-14 11:00N 35°06' E 139°44'713.8
2017-Oct-14 10:30N 35°01' E 139°38'815.4
2017-Oct-14 10:00N 34°56' E 139°31'42 3.7
2017-Oct-13 22:45N 35°07' E 138°42'38 3.4
2017-Oct-13 11:46N 34°54' E 139°25'413.4
2017-Oct-13 11:29N 34°57' E 139°28'613.1
2017-Oct-13 11:00N 35°00' E 139°35'714.3
2017-Oct-13 10:30N 35°05' E 139°41'815.1
2017-Oct-13 10:00N 35°12' E 139°45'611.8
2017-Oct-13 09:30N 35°18' E 139°44'612.9
2017-Oct-13 09:01N 35°24' E 139°43'714.4
2017-Oct-13 08:30N 35°30' E 139°48'2 0.5
2017-Oct-13 04:48N 35°31' E 139°46'1 3.0
2017-Oct-13 04:30N 35°30' E 139°46'4 7.6
2017-Oct-13 04:00N 35°27' E 139°43'1 2.2
2017-Oct-13 03:30N 35°28' E 139°44'0 0.0
2017-Oct-13 02:57N 35°28' E 139°44'0 0.0
2017-Oct-13 02:30N 35°28' E 139°44'0 0.0
2017-Oct-13 01:54N 35°28' E 139°44'0 0.0
2017-Oct-13 01:27N 35°28' E 139°44'0 0.0
2017-Oct-13 01:00N 35°28' E 139°44'0 0.0
2017-Oct-13 00:24N 35°28' E 139°44'0 0.0
2017-Oct-12 23:54N 35°28' E 139°44'0 0.0
2017-Oct-12 23:30N 35°28' E 139°44'0 0.0
2017-Oct-12 22:51N 35°28' E 139°44'0 0.0
2017-Oct-12 22:30N 35°28' E 139°44'0 0.0
2017-Oct-12 22:00N 35°28' E 139°44'0 0.0
2017-Oct-12 21:30N 35°28' E 139°44'0 0.0
2017-Oct-12 21:00N 35°28' E 139°44'0 0.0
2017-Oct-12 20:30N 35°28' E 139°44'0 0.0
2017-Oct-12 20:00N 35°28' E 139°44'0 0.1
2017-Oct-12 19:30N 35°28' E 139°44'0 0.0
2017-Oct-12 19:00N 35°28' E 139°44'0 0.0
2017-Oct-12 18:30N 35°28' E 139°44'0 0.0
2017-Oct-12 18:00N 35°28' E 139°44'0 0.0
2017-Oct-12 17:30N 35°28' E 139°44'0 0.0
2017-Oct-12 17:00N 35°28' E 139°44'0 0.0
2017-Oct-12 16:30N 35°28' E 139°44'0 0.0
2017-Oct-12 16:00N 35°28' E 139°44'0 0.0
2017-Oct-12 15:27N 35°28' E 139°44'0 0.0
2017-Oct-12 15:00N 35°28' E 139°44'0 0.0
2017-Oct-12 14:30N 35°28' E 139°44'0 0.1
2017-Oct-12 14:00N 35°28' E 139°44'0 0.0
2017-Oct-12 13:30N 35°28' E 139°44'0 0.2
2017-Oct-12 13:00N 35°28' E 139°44'0 0.1
2017-Oct-12 12:30N 35°28' E 139°44'0 0.0
2017-Oct-12 11:54N 35°28' E 139°44'0 0.0
2017-Oct-12 11:30N 35°28' E 139°44'0 0.0
2017-Oct-12 11:00N 35°28' E 139°44'0 0.0
2017-Oct-12 10:30N 35°28' E 139°44'0 0.1
2017-Oct-12 10:00N 35°28' E 139°44'0 0.0
2017-Oct-12 09:30N 35°28' E 139°44'0 0.0
2017-Oct-12 08:57N 35°28' E 139°44'0 0.0
2017-Oct-12 08:30N 35°28' E 139°44'0 0.0
2017-Oct-12 08:00N 35°28' E 139°44'0 0.0
2017-Oct-12 07:30N 35°28' E 139°44'0 0.0
2017-Oct-12 06:57N 35°28' E 139°44'0 0.0
2017-Oct-12 06:30N 35°28' E 139°44'0 0.0
2017-Oct-12 06:00N 35°28' E 139°44'3 5.5
2017-Oct-12 05:31N 35°25' E 139°43'3 5.8
2017-Oct-12 05:00N 35°24' E 139°39'0 0.1
2017-Oct-12 04:28N 35°24' E 139°40'0 0.0
2017-Oct-12 03:58N 35°24' E 139°40'0 0.0
2017-Oct-12 03:28N 35°24' E 139°40'0 0.0
2017-Oct-12 02:58N 35°24' E 139°40'0 0.0
2017-Oct-12 02:22N 35°24' E 139°40'0 0.0
2017-Oct-12 01:58N 35°24' E 139°40'0 0.0
2017-Oct-12 01:28N 35°24' E 139°40'0 0.2
2017-Oct-12 00:55N 35°24' E 139°39'2 4.7
2017-Oct-12 00:29N 35°22' E 139°40'0 0.1
2017-Oct-11 23:57N 35°23' E 139°40'0 0.1
2017-Oct-11 23:27N 35°23' E 139°40'0 0.1
2017-Oct-11 22:51N 35°23' E 139°40'0 0.0
2017-Oct-11 22:27N 35°23' E 139°40'0 0.0
2017-Oct-11 21:57N 35°23' E 139°40'0 0.0
2017-Oct-11 21:09N 35°23' E 139°40'0 0.0
2017-Oct-11 20:51N 35°23' E 139°40'0 0.0
2017-Oct-11 20:27N 35°23' E 139°40'0 0.0
2017-Oct-11 19:57N 35°23' E 139°40'0 0.1
2017-Oct-11 19:15N 35°23' E 139°40'0 0.1
2017-Oct-11 18:57N 35°23' E 139°40'0 0.0
2017-Oct-11 18:03N 35°23' E 139°40'0 0.1
2017-Oct-11 17:57N 35°23' E 139°40'0 0.0
2017-Oct-11 17:21N 35°23' E 139°40'0 0.0
2017-Oct-11 16:57N 35°23' E 139°40'50 2.7
2017-Oct-10 22:35N 35°05' E 138°43'0 1.4
2017-Oct-10 22:21N 35°04' E 138°43'1 0.3
2017-Oct-10 20:45N 35°05' E 138°43'1 1.8
2017-Oct-10 20:28N 35°04' E 138°42'37 6.7
2017-Oct-10 14:53N 34°54' E 139°26'1213.7
2017-Oct-10 14:00N 35°02' E 139°37'713.7
2017-Oct-10 13:30N 35°07' E 139°42'713.6
2017-Oct-10 13:00N 35°13' E 139°46'612.4
2017-Oct-10 12:30N 35°19' E 139°43'712.9
2017-Oct-10 12:00N 35°25' E 139°44'610.9
2017-Oct-10 11:30N 35°30' E 139°47'1 0.1
2017-Oct-10 06:10N 35°31' E 139°46'0 3.0
2017-Oct-10 06:00N 35°31' E 139°46'4 8.0
2017-Oct-10 05:30N 35°28' E 139°43'611.1
2017-Oct-10 05:00N 35°22' E 139°44'0 0.4
2017-Oct-10 04:29N 35°22' E 139°44'0 0.0
2017-Oct-10 03:56N 35°22' E 139°44'0 0.0
2017-Oct-10 03:23N 35°22' E 139°44'0 0.0
2017-Oct-10 02:59N 35°22' E 139°44'0 0.0
2017-Oct-10 02:29N 35°22' E 139°44'0 0.0
2017-Oct-10 01:59N 35°22' E 139°44'0 0.0
2017-Oct-10 01:29N 35°22' E 139°44'0 0.0
2017-Oct-10 00:56N 35°22' E 139°44'0 0.0
2017-Oct-10 00:29N 35°22' E 139°44'0 0.1
2017-Oct-09 23:59N 35°22' E 139°44'0 0.0
2017-Oct-09 23:29N 35°22' E 139°44'0 0.0
2017-Oct-09 22:59N 35°22' E 139°44'0 0.0
2017-Oct-09 22:29N 35°22' E 139°44'0 0.0
2017-Oct-09 19:26N 35°22' E 139°44'0 0.0
2017-Oct-09 18:44N 35°22' E 139°44'0 0.0
2017-Oct-09 18:26N 35°22' E 139°44'0 0.0
2017-Oct-09 17:56N 35°22' E 139°44'0 0.1
2017-Oct-09 17:26N 35°22' E 139°44'0 0.0
2017-Oct-09 16:56N 35°22' E 139°44'0 0.0
2017-Oct-09 16:26N 35°22' E 139°44'0 0.1
2017-Oct-09 15:56N 35°22' E 139°44'0 0.0
2017-Oct-09 15:26N 35°22' E 139°44'0 0.0
2017-Oct-09 14:56N 35°22' E 139°44'0 0.0
2017-Oct-09 14:26N 35°22' E 139°44'0 0.1
2017-Oct-09 14:00N 35°22' E 139°44'4 8.1
2017-Oct-09 13:30N 35°18' E 139°45'611.6
2017-Oct-09 13:00N 35°13' E 139°47'714.7
2017-Oct-09 12:30N 35°06' E 139°44'815.6
2017-Oct-09 12:00N 35°01' E 139°37'815.8
2017-Oct-09 11:30N 34°56' E 139°29'47 3.4
2017-Oct-08 21:48N 34°58' E 138°32'45 4.3
2017-Oct-08 11:18N 34°55' E 139°28'414.1
2017-Oct-08 11:00N 34°57' E 139°31'713.8
2017-Oct-08 10:30N 35°02' E 139°38'612.9
2017-Oct-08 10:00N 35°07' E 139°43'713.6
2017-Oct-08 09:30N 35°13' E 139°46'611.9
2017-Oct-08 09:00N 35°19' E 139°43'612.7
2017-Oct-08 08:30N 35°25' E 139°43'611.8
2017-Oct-08 08:00N 35°30' E 139°47'1 0.3
2017-Oct-08 04:12N 35°31' E 139°46'1 3.4
2017-Oct-08 04:00N 35°31' E 139°46'4 8.0
2017-Oct-08 03:30N 35°28' E 139°43'4 7.8
2017-Oct-08 03:00N 35°24' E 139°45'0 0.1
2017-Oct-08 02:30N 35°24' E 139°45'0 0.0
2017-Oct-08 02:00N 35°24' E 139°45'0 0.0
2017-Oct-08 01:27N 35°24' E 139°45'0 0.0
2017-Oct-08 01:00N 35°24' E 139°45'0 0.0
2017-Oct-08 00:30N 35°24' E 139°45'0 0.0
2017-Oct-07 23:57N 35°24' E 139°45'0 0.0
2017-Oct-07 23:30N 35°24' E 139°45'0 0.0
2017-Oct-07 23:00N 35°24' E 139°45'0 0.1
2017-Oct-07 22:30N 35°24' E 139°45'0 0.0
2017-Oct-07 22:00N 35°24' E 139°45'0 0.0
2017-Oct-07 21:30N 35°24' E 139°45'0 0.0
2017-Oct-07 21:00N 35°24' E 139°45'0 0.1
2017-Oct-07 20:30N 35°24' E 139°45'0 0.1
2017-Oct-07 20:00N 35°24' E 139°45'0 0.0
2017-Oct-07 19:30N 35°24' E 139°45'0 0.0
2017-Oct-07 19:00N 35°24' E 139°45'0 0.0
2017-Oct-07 18:30N 35°24' E 139°45'0 0.0
2017-Oct-07 18:00N 35°24' E 139°45'0 0.0
2017-Oct-07 17:30N 35°24' E 139°45'0 0.1
2017-Oct-07 17:00N 35°24' E 139°45'0 0.1
2017-Oct-07 16:30N 35°24' E 139°45'0 0.1
2017-Oct-07 16:00N 35°24' E 139°45'0 0.0
2017-Oct-07 15:30N 35°24' E 139°45'0 0.0
2017-Oct-07 15:00N 35°24' E 139°45'0 0.0
2017-Oct-07 14:30N 35°24' E 139°45'0 0.0
2017-Oct-07 14:00N 35°24' E 139°45'0 0.0
2017-Oct-07 13:30N 35°24' E 139°45'0 0.0
2017-Oct-07 13:00N 35°24' E 139°45'0 0.0
2017-Oct-07 12:30N 35°24' E 139°45'0 0.0
2017-Oct-07 12:00N 35°24' E 139°45'0 0.0
2017-Oct-07 11:30N 35°24' E 139°45'0 0.0
2017-Oct-07 11:00N 35°24' E 139°45'0 0.0
2017-Oct-07 10:30N 35°24' E 139°45'0 0.0
2017-Oct-07 10:00N 35°24' E 139°45'0 0.0
2017-Oct-07 09:30N 35°24' E 139°45'0 0.0
2017-Oct-07 09:00N 35°24' E 139°45'0 0.2
2017-Oct-07 08:30N 35°24' E 139°45'5 9.1
2017-Oct-07 08:01N 35°28' E 139°49'714.0
2017-Oct-07 07:30N 35°30' E 139°57'3 0.5
2017-Oct-07 02:04N 35°29' E 140°01'210.5
2017-Oct-07 01:53N 35°30' E 139°59'1 0.1
2017-Oct-06 21:06N 35°30' E 139°58'0 0.3
2017-Oct-06 20:57N 35°30' E 139°58'0 0.1
2017-Oct-06 19:24N 35°30' E 139°58'0 0.1
2017-Oct-06 18:57N 35°30' E 139°58'0 0.0
2017-Oct-06 18:27N 35°30' E 139°58'0 0.0
2017-Oct-06 16:50N 35°30' E 139°58'  
Track history (hours):
 
Tides and Currents Weather Stations Pressure Air Temp Water Temp Dewpoint Dewpoint Depression Visibility Wind Speed Wind Dir Waves Ship Positions

Nisshunmaru

Last reported at 2017-Oct-16 16:49 UTC. Time now 2017-Oct-18 11:25 UTC.
Position N 34°54' E 139°25'.

Length 105 m; draft 6 m.

Type: Ship (hazmat cat B). MMSI: 431501863.

Date/timePositionNaut miles runAvg speedWind from/ knotsBaromVisibWave heightAir tempDewpointWater temp
2017-Oct-16 16:49N 34°54' E 139°25'412.9
2017-Oct-16 16:29N 34°57' E 139°29'613.3
2017-Oct-16 16:00N 35°01' E 139°35'714.5
2017-Oct-16 15:30N 35°05' E 139°42'815.2
2017-Oct-16 15:00N 35°12' E 139°46'611.3
2017-Oct-16 14:30N 35°18' E 139°44'1312.5
2017-Oct-16 13:30N 35°30' E 139°48'2 3.7
2017-Oct-16 13:00N 35°31' E 139°46'0 0.0
2017-Oct-16 07:09N 35°31' E 139°46'0 2.7
2017-Oct-16 07:01N 35°31' E 139°46'4 8.3
2017-Oct-16 06:31N 35°28' E 139°42'4 7.3
2017-Oct-16 06:00N 35°25' E 139°45'1 1.6
2017-Oct-16 05:29N 35°24' E 139°45'0 0.0
2017-Oct-16 04:56N 35°24' E 139°45'0 0.0
2017-Oct-16 04:26N 35°24' E 139°45'0 0.0
2017-Oct-16 03:56N 35°24' E 139°45'0 0.0
2017-Oct-16 03:29N 35°24' E 139°45'0 0.0
2017-Oct-16 02:59N 35°24' E 139°45'0 0.0
2017-Oct-16 02:29N 35°24' E 139°45'0 0.0
2017-Oct-16 01:59N 35°24' E 139°45'0 0.0
2017-Oct-16 01:29N 35°24' E 139°45'1 2.0
2017-Oct-16 01:01N 35°25' E 139°45'612.6
2017-Oct-16 00:30N 35°29' E 139°51'814.8
2017-Oct-15 23:59N 35°33' E 139°59'0 0.0
2017-Oct-14 13:29N 35°33' E 139°58'714.0
2017-Oct-14 13:00N 35°29' E 139°52'713.7
2017-Oct-14 12:31N 35°24' E 139°46'612.4
2017-Oct-14 12:00N 35°18' E 139°45'612.5
2017-Oct-14 11:30N 35°12' E 139°47'713.1
2017-Oct-14 11:00N 35°06' E 139°44'713.8
2017-Oct-14 10:30N 35°01' E 139°38'815.4
2017-Oct-14 10:00N 34°56' E 139°31'42 3.7
2017-Oct-13 22:45N 35°07' E 138°42'38 3.4
2017-Oct-13 11:46N 34°54' E 139°25'413.4
2017-Oct-13 11:29N 34°57' E 139°28'613.1
2017-Oct-13 11:00N 35°00' E 139°35'714.3
2017-Oct-13 10:30N 35°05' E 139°41'815.1
2017-Oct-13 10:00N 35°12' E 139°45'611.8
2017-Oct-13 09:30N 35°18' E 139°44'612.9
2017-Oct-13 09:01N 35°24' E 139°43'714.4
2017-Oct-13 08:30N 35°30' E 139°48'2 0.5
2017-Oct-13 04:48N 35°31' E 139°46'1 3.0
2017-Oct-13 04:30N 35°30' E 139°46'4 7.6
2017-Oct-13 04:00N 35°27' E 139°43'1 2.2
2017-Oct-13 03:30N 35°28' E 139°44'0 0.0
2017-Oct-13 02:57N 35°28' E 139°44'0 0.0
2017-Oct-13 02:30N 35°28' E 139°44'0 0.0
2017-Oct-13 01:54N 35°28' E 139°44'0 0.0
2017-Oct-13 01:27N 35°28' E 139°44'0 0.0
2017-Oct-13 01:00N 35°28' E 139°44'0 0.0
2017-Oct-13 00:24N 35°28' E 139°44'0 0.0
2017-Oct-12 23:54N 35°28' E 139°44'0 0.0
2017-Oct-12 23:30N 35°28' E 139°44'0 0.0
2017-Oct-12 22:51N 35°28' E 139°44'0 0.0
2017-Oct-12 22:30N 35°28' E 139°44'0 0.0
2017-Oct-12 22:00N 35°28' E 139°44'0 0.0
2017-Oct-12 21:30N 35°28' E 139°44'0 0.0
2017-Oct-12 21:00N 35°28' E 139°44'0 0.0
2017-Oct-12 20:30N 35°28' E 139°44'0 0.0
2017-Oct-12 20:00N 35°28' E 139°44'0 0.1
2017-Oct-12 19:30N 35°28' E 139°44'0 0.0
2017-Oct-12 19:00N 35°28' E 139°44'0 0.0
2017-Oct-12 18:30N 35°28' E 139°44'0 0.0
2017-Oct-12 18:00N 35°28' E 139°44'0 0.0
2017-Oct-12 17:30N 35°28' E 139°44'0 0.0
2017-Oct-12 17:00N 35°28' E 139°44'0 0.0
2017-Oct-12 16:30N 35°28' E 139°44'0 0.0
2017-Oct-12 16:00N 35°28' E 139°44'0 0.0
2017-Oct-12 15:27N 35°28' E 139°44'0 0.0
2017-Oct-12 15:00N 35°28' E 139°44'0 0.0
2017-Oct-12 14:30N 35°28' E 139°44'0 0.1
2017-Oct-12 14:00N 35°28' E 139°44'0 0.0
2017-Oct-12 13:30N 35°28' E 139°44'0 0.2
2017-Oct-12 13:00N 35°28' E 139°44'0 0.1
2017-Oct-12 12:30N 35°28' E 139°44'0 0.0
2017-Oct-12 11:54N 35°28' E 139°44'0 0.0
2017-Oct-12 11:30N 35°28' E 139°44'0 0.0
2017-Oct-12 11:00N 35°28' E 139°44'0 0.0
2017-Oct-12 10:30N 35°28' E 139°44'0 0.1
2017-Oct-12 10:00N 35°28' E 139°44'0 0.0
2017-Oct-12 09:30N 35°28' E 139°44'0 0.0
2017-Oct-12 08:57N 35°28' E 139°44'0 0.0
2017-Oct-12 08:30N 35°28' E 139°44'0 0.0
2017-Oct-12 08:00N 35°28' E 139°44'0 0.0
2017-Oct-12 07:30N 35°28' E 139°44'0 0.0
2017-Oct-12 06:57N 35°28' E 139°44'0 0.0
2017-Oct-12 06:30N 35°28' E 139°44'0 0.0
2017-Oct-12 06:00N 35°28' E 139°44'3 5.5
2017-Oct-12 05:31N 35°25' E 139°43'3 5.8
2017-Oct-12 05:00N 35°24' E 139°39'0 0.1
2017-Oct-12 04:28N 35°24' E 139°40'0 0.0
2017-Oct-12 03:58N 35°24' E 139°40'0 0.0
2017-Oct-12 03:28N 35°24' E 139°40'0 0.0
2017-Oct-12 02:58N 35°24' E 139°40'0 0.0
2017-Oct-12 02:22N 35°24' E 139°40'0 0.0
2017-Oct-12 01:58N 35°24' E 139°40'0 0.0
2017-Oct-12 01:28N 35°24' E 139°40'0 0.2
2017-Oct-12 00:55N 35°24' E 139°39'2 4.7
2017-Oct-12 00:29N 35°22' E 139°40'0 0.1
2017-Oct-11 23:57N 35°23' E 139°40'0 0.1
2017-Oct-11 23:27N 35°23' E 139°40'0 0.1
2017-Oct-11 22:51N 35°23' E 139°40'0 0.0
2017-Oct-11 22:27N 35°23' E 139°40'0 0.0
2017-Oct-11 21:57N 35°23' E 139°40'0 0.0
2017-Oct-11 21:09N 35°23' E 139°40'0 0.0
2017-Oct-11 20:51N 35°23' E 139°40'0 0.0
2017-Oct-11 20:27N 35°23' E 139°40'0 0.0
2017-Oct-11 19:57N 35°23' E 139°40'0 0.1
2017-Oct-11 19:15N 35°23' E 139°40'0 0.1
2017-Oct-11 18:57N 35°23' E 139°40'0 0.0
2017-Oct-11 18:03N 35°23' E 139°40'0 0.1
2017-Oct-11 17:57N 35°23' E 139°40'0 0.0
2017-Oct-11 17:21N 35°23' E 139°40'0 0.0
2017-Oct-11 16:57N 35°23' E 139°40'50 2.7
2017-Oct-10 22:35N 35°05' E 138°43'0 1.4
2017-Oct-10 22:21N 35°04' E 138°43'1 0.3
2017-Oct-10 20:45N 35°05' E 138°43'1 1.8
2017-Oct-10 20:28N 35°04' E 138°42'37 6.7
2017-Oct-10 14:53N 34°54' E 139°26'1213.7
2017-Oct-10 14:00N 35°02' E 139°37'713.7
2017-Oct-10 13:30N 35°07' E 139°42'713.6
2017-Oct-10 13:00N 35°13' E 139°46'612.4
2017-Oct-10 12:30N 35°19' E 139°43'712.9
2017-Oct-10 12:00N 35°25' E 139°44'610.9
2017-Oct-10 11:30N 35°30' E 139°47'1 0.1
2017-Oct-10 06:10N 35°31' E 139°46'0 3.0
2017-Oct-10 06:00N 35°31' E 139°46'4 8.0
2017-Oct-10 05:30N 35°28' E 139°43'611.1
2017-Oct-10 05:00N 35°22' E 139°44'0 0.4
2017-Oct-10 04:29N 35°22' E 139°44'0 0.0
2017-Oct-10 03:56N 35°22' E 139°44'0 0.0
2017-Oct-10 03:23N 35°22' E 139°44'0 0.0
2017-Oct-10 02:59N 35°22' E 139°44'0 0.0
2017-Oct-10 02:29N 35°22' E 139°44'0 0.0
2017-Oct-10 01:59N 35°22' E 139°44'0 0.0
2017-Oct-10 01:29N 35°22' E 139°44'0 0.0
2017-Oct-10 00:56N 35°22' E 139°44'0 0.0
2017-Oct-10 00:29N 35°22' E 139°44'0 0.1
2017-Oct-09 23:59N 35°22' E 139°44'0 0.0
2017-Oct-09 23:29N 35°22' E 139°44'0 0.0
2017-Oct-09 22:59N 35°22' E 139°44'0 0.0
2017-Oct-09 22:29N 35°22' E 139°44'0 0.0
2017-Oct-09 19:26N 35°22' E 139°44'0 0.0
2017-Oct-09 18:44N 35°22' E 139°44'0 0.0
2017-Oct-09 18:26N 35°22' E 139°44'0 0.0
2017-Oct-09 17:56N 35°22' E 139°44'0 0.1
2017-Oct-09 17:26N 35°22' E 139°44'0 0.0
2017-Oct-09 16:56N 35°22' E 139°44'0 0.0
2017-Oct-09 16:26N 35°22' E 139°44'0 0.1
2017-Oct-09 15:56N 35°22' E 139°44'0 0.0
2017-Oct-09 15:26N 35°22' E 139°44'0 0.0
2017-Oct-09 14:56N 35°22' E 139°44'0 0.0
2017-Oct-09 14:26N 35°22' E 139°44'0 0.1
2017-Oct-09 14:00N 35°22' E 139°44'4 8.1
2017-Oct-09 13:30N 35°18' E 139°45'611.6
2017-Oct-09 13:00N 35°13' E 139°47'714.7
2017-Oct-09 12:30N 35°06' E 139°44'815.6
2017-Oct-09 12:00N 35°01' E 139°37'815.8
2017-Oct-09 11:30N 34°56' E 139°29'47 3.4
2017-Oct-08 21:48N 34°58' E 138°32'45 4.3
2017-Oct-08 11:18N 34°55' E 139°28'414.1
2017-Oct-08 11:00N 34°57' E 139°31'713.8
2017-Oct-08 10:30N 35°02' E 139°38'612.9
2017-Oct-08 10:00N 35°07' E 139°43'713.6
2017-Oct-08 09:30N 35°13' E 139°46'611.9
2017-Oct-08 09:00N 35°19' E 139°43'612.7
2017-Oct-08 08:30N 35°25' E 139°43'611.8
2017-Oct-08 08:00N 35°30' E 139°47'1 0.3
2017-Oct-08 04:12N 35°31' E 139°46'1 3.4
2017-Oct-08 04:00N 35°31' E 139°46'4 8.0
2017-Oct-08 03:30N 35°28' E 139°43'4 7.8
2017-Oct-08 03:00N 35°24' E 139°45'0 0.1
2017-Oct-08 02:30N 35°24' E 139°45'0 0.0
2017-Oct-08 02:00N 35°24' E 139°45'0 0.0
2017-Oct-08 01:27N 35°24' E 139°45'0 0.0
2017-Oct-08 01:00N 35°24' E 139°45'0 0.0
2017-Oct-08 00:30N 35°24' E 139°45'0 0.0
2017-Oct-07 23:57N 35°24' E 139°45'0 0.0
2017-Oct-07 23:30N 35°24' E 139°45'0 0.0
2017-Oct-07 23:00N 35°24' E 139°45'0 0.1
2017-Oct-07 22:30N 35°24' E 139°45'0 0.0
2017-Oct-07 22:00N 35°24' E 139°45'0 0.0
2017-Oct-07 21:30N 35°24' E 139°45'0 0.0
2017-Oct-07 21:00N 35°24' E 139°45'0 0.1
2017-Oct-07 20:30N 35°24' E 139°45'0 0.1
2017-Oct-07 20:00N 35°24' E 139°45'0 0.0
2017-Oct-07 19:30N 35°24' E 139°45'0 0.0
2017-Oct-07 19:00N 35°24' E 139°45'0 0.0
2017-Oct-07 18:30N 35°24' E 139°45'0 0.0
2017-Oct-07 18:00N 35°24' E 139°45'0 0.0
2017-Oct-07 17:30N 35°24' E 139°45'0 0.1
2017-Oct-07 17:00N 35°24' E 139°45'0 0.1
2017-Oct-07 16:30N 35°24' E 139°45'0 0.1
2017-Oct-07 16:00N 35°24' E 139°45'0 0.0
2017-Oct-07 15:30N 35°24' E 139°45'0 0.0
2017-Oct-07 15:00N 35°24' E 139°45'0 0.0
2017-Oct-07 14:30N 35°24' E 139°45'0 0.0
2017-Oct-07 14:00N 35°24' E 139°45'0 0.0
2017-Oct-07 13:30N 35°24' E 139°45'0 0.0
2017-Oct-07 13:00N 35°24' E 139°45'0 0.0
2017-Oct-07 12:30N 35°24' E 139°45'0 0.0
2017-Oct-07 12:00N 35°24' E 139°45'0 0.0
2017-Oct-07 11:30N 35°24' E 139°45'0 0.0
2017-Oct-07 11:00N 35°24' E 139°45'0 0.0
2017-Oct-07 10:30N 35°24' E 139°45'0 0.0
2017-Oct-07 10:00N 35°24' E 139°45'0 0.0
2017-Oct-07 09:30N 35°24' E 139°45'0 0.0
2017-Oct-07 09:00N 35°24' E 139°45'0 0.2
2017-Oct-07 08:30N 35°24' E 139°45'5 9.1
2017-Oct-07 08:01N 35°28' E 139°49'714.0
2017-Oct-07 07:30N 35°30' E 139°57'3 0.5
2017-Oct-07 02:04N 35°29' E 140°01'210.5
2017-Oct-07 01:53N 35°30' E 139°59'1 0.1
2017-Oct-06 21:06N 35°30' E 139°58'0 0.3
2017-Oct-06 20:57N 35°30' E 139°58'0 0.1
2017-Oct-06 19:24N 35°30' E 139°58'0 0.1
2017-Oct-06 18:57N 35°30' E 139°58'0 0.0
2017-Oct-06 18:27N 35°30' E 139°58'0 0.0
2017-Oct-06 16:50N 35°30' E 139°58'  

Dump ship's entire track history